createdAt,value
2019-03-21T00:00:30.400Z,0.20
2019-03-21T00:05:39.690Z,0.10
2019-03-21T00:11:25.266Z,0.00
2019-03-21T00:16:30.131Z,-0.30
2019-03-21T00:21:35.438Z,-0.40
2019-03-21T00:26:45.561Z,-0.50
2019-03-21T00:31:51.053Z,-0.60
2019-03-21T00:36:55.875Z,-0.80
2019-03-21T00:42:04.075Z,-0.90
2019-03-21T00:47:08.982Z,-1.00
2019-03-21T00:52:16.609Z,-1.10
2019-03-21T00:57:22.944Z,-1.10
2019-03-21T01:02:28.476Z,-1.10
2019-03-21T01:07:33.725Z,-1.20
2019-03-21T01:12:41.381Z,-1.20
2019-03-21T01:17:46.657Z,-1.20
2019-03-21T01:22:52.716Z,-1.20
2019-03-21T01:27:58.143Z,-1.30
2019-03-21T01:33:03.343Z,-1.30
2019-03-21T01:38:10.034Z,-1.30
2019-03-21T01:43:17.923Z,-1.30
2019-03-21T01:48:23.130Z,-1.30
2019-03-21T01:53:28.645Z,-1.20
2019-03-21T01:58:34.250Z,-1.20
2019-03-21T02:03:40.236Z,-1.10
2019-03-21T02:08:45.098Z,-1.00
2019-03-21T02:13:50.325Z,-1.00
2019-03-21T02:18:56.097Z,-1.00
2019-03-21T02:24:01.258Z,-1.20
2019-03-21T02:29:06.168Z,-1.40
2019-03-21T02:34:11.294Z,-1.60
2019-03-21T02:39:24.449Z,-1.70
2019-03-21T02:44:29.695Z,-1.90
2019-03-21T02:49:35.186Z,-2.00
2019-03-21T02:54:47.608Z,-2.00
2019-03-21T02:59:53.860Z,-2.00
2019-03-21T03:05:02.675Z,-2.20
2019-03-21T03:10:14.257Z,-2.20
2019-03-21T03:15:23.284Z,-2.30
2019-03-21T03:20:33.084Z,-2.40
2019-03-21T03:25:38.069Z,-2.40
2019-03-21T03:30:43.037Z,-2.40
2019-03-21T03:35:47.969Z,-2.40
2019-03-21T03:40:58.239Z,-2.50
2019-03-21T03:46:03.693Z,-2.50
2019-03-21T03:51:09.296Z,-2.50
2019-03-21T03:56:15.405Z,-2.40
2019-03-21T04:01:20.659Z,-2.40
2019-03-21T04:06:26.315Z,-2.50
2019-03-21T04:11:34.359Z,-2.60
2019-03-21T04:16:40.283Z,-2.60
2019-03-21T04:21:48.311Z,-2.60
2019-03-21T04:26:53.611Z,-2.70
2019-03-21T04:31:58.903Z,-2.60
2019-03-21T04:37:03.868Z,-2.50
2019-03-21T04:42:10.322Z,-2.40
2019-03-21T04:47:15.893Z,-2.50
2019-03-21T04:52:21.304Z,-2.30
2019-03-21T04:57:26.144Z,-2.40
2019-03-21T05:02:31.767Z,-2.40
2019-03-21T05:07:42.810Z,-2.50
2019-03-21T05:12:48.641Z,-2.60
2019-03-21T05:17:58.689Z,-2.70
2019-03-21T05:23:04.419Z,-2.80
2019-03-21T05:28:10.565Z,-2.80
2019-03-21T05:33:18.609Z,-2.70
2019-03-21T05:38:24.343Z,-2.60
2019-03-21T05:43:39.767Z,-2.60
2019-03-21T05:48:47.225Z,-2.60
2019-03-21T05:53:55.529Z,-2.60
2019-03-21T05:59:02.343Z,-2.60
2019-03-21T06:04:14.855Z,-2.60
2019-03-21T06:09:21.001Z,-2.50
2019-03-21T06:14:26.606Z,-2.30
2019-03-21T06:19:55.515Z,-2.20
2019-03-21T06:25:25.709Z,-2.00
2019-03-21T06:30:42.152Z,-1.80
2019-03-21T06:35:48.217Z,-1.60
2019-03-21T06:40:55.983Z,-1.30
2019-03-21T06:46:01.685Z,-0.60
2019-03-21T06:51:06.739Z,4.30
2019-03-21T06:56:11.781Z,10.40
2019-03-21T07:01:20.084Z,13.50
2019-03-21T07:06:26.825Z,15.80
2019-03-21T07:11:32.434Z,15.80
2019-03-21T07:16:40.085Z,16.60
2019-03-21T07:21:45.435Z,16.40
2019-03-21T07:26:51.195Z,15.90
2019-03-21T07:31:56.465Z,15.90
2019-03-21T07:37:02.063Z,14.60
2019-03-21T07:42:08.102Z,14.40
2019-03-21T07:47:14.081Z,14.50
2019-03-21T07:52:19.662Z,15.60
2019-03-21T07:57:25.327Z,16.40
2019-03-21T08:02:30.506Z,15.90
2019-03-21T08:07:35.743Z,15.70
2019-03-21T08:12:41.070Z,16.10
2019-03-21T08:17:46.462Z,14.70
2019-03-21T08:22:52.018Z,14.60
2019-03-21T08:27:57.514Z,14.50
2019-03-21T08:33:06.229Z,15.50
2019-03-21T08:38:11.729Z,17.00
2019-03-21T08:43:20.011Z,16.40
2019-03-21T08:48:25.024Z,16.60
2019-03-21T08:53:30.430Z,17.30
2019-03-21T08:58:36.114Z,15.30
2019-03-21T09:03:41.195Z,16.30
2019-03-21T09:08:47.758Z,16.70
2019-03-21T09:13:56.036Z,16.30
2019-03-21T09:19:01.759Z,15.00
2019-03-21T09:24:06.999Z,15.30
2019-03-21T09:29:14.699Z,15.80
2019-03-21T09:34:20.011Z,16.20
2019-03-21T09:39:26.484Z,16.50
2019-03-21T09:44:31.765Z,16.60
2019-03-21T09:49:37.625Z,17.30
2019-03-21T09:54:42.829Z,18.20
2019-03-21T09:59:49.727Z,17.40
2019-03-21T10:04:55.320Z,16.10
2019-03-21T10:10:02.862Z,15.10
2019-03-21T10:15:08.048Z,14.20
2019-03-21T10:20:13.170Z,13.80
2019-03-21T10:25:20.867Z,13.00
2019-03-21T10:30:36.687Z,12.90
2019-03-21T10:35:42.090Z,12.60
2019-03-21T10:40:47.308Z,12.70
2019-03-21T10:45:52.462Z,13.20
2019-03-21T10:50:59.331Z,13.40
2019-03-21T10:56:04.978Z,13.90
2019-03-21T11:01:11.791Z,13.50
2019-03-21T11:06:17.489Z,13.70
2019-03-21T11:11:23.322Z,13.50
2019-03-21T11:16:28.625Z,13.80
2019-03-21T11:21:36.627Z,14.10
2019-03-21T11:26:41.573Z,14.30
2019-03-21T11:31:52.694Z,13.90
2019-03-21T11:36:59.348Z,14.40
2019-03-21T11:42:04.429Z,14.60
2019-03-21T11:47:09.779Z,14.80
2019-03-21T11:52:18.426Z,14.70
2019-03-21T11:57:28.294Z,14.70
2019-03-21T12:02:33.875Z,14.60
2019-03-21T12:07:42.254Z,14.80
2019-03-21T12:12:47.433Z,14.60
2019-03-21T12:17:55.306Z,14.60
2019-03-21T12:23:07.599Z,14.60
2019-03-21T12:28:13.190Z,14.80
2019-03-21T12:33:20.542Z,14.80
2019-03-21T12:38:25.698Z,15.10
2019-03-21T12:43:30.738Z,15.20
2019-03-21T12:48:39.517Z,15.10
2019-03-21T12:53:44.619Z,15.10
2019-03-21T12:58:50.845Z,15.30
2019-03-21T13:03:55.966Z,14.90
2019-03-21T13:09:03.484Z,15.00
2019-03-21T13:14:09.562Z,14.90
2019-03-21T13:19:14.568Z,15.30
2019-03-21T13:24:20.634Z,15.40
2019-03-21T13:29:25.586Z,15.10
2019-03-21T13:34:34.280Z,14.90
2019-03-21T13:39:39.786Z,15.30
2019-03-21T13:44:46.264Z,15.20
2019-03-21T13:49:51.776Z,15.00
2019-03-21T13:54:57.694Z,15.00
2019-03-21T14:00:04.575Z,15.20
2019-03-21T14:05:10.356Z,15.20
2019-03-21T14:10:17.698Z,15.30
2019-03-21T14:15:22.983Z,15.30
2019-03-21T14:20:29.111Z,15.10
2019-03-21T14:25:34.829Z,15.20
2019-03-21T14:31:00.688Z,15.40
2019-03-21T14:36:08.236Z,15.30
2019-03-21T14:41:14.836Z,15.10
2019-03-21T14:46:20.843Z,15.00
2019-03-21T14:51:32.550Z,15.00
2019-03-21T14:56:43.015Z,14.90
2019-03-21T15:01:49.344Z,15.00
2019-03-21T15:06:54.673Z,14.80
2019-03-21T15:12:01.896Z,14.90
2019-03-21T15:17:07.435Z,14.90
2019-03-21T15:22:17.052Z,14.70
2019-03-21T15:27:29.129Z,14.70
2019-03-21T15:32:35.620Z,14.60
2019-03-21T15:37:46.431Z,14.60
2019-03-21T15:43:02.655Z,14.40
2019-03-21T15:48:07.765Z,14.30
2019-03-21T15:53:16.567Z,14.40
2019-03-21T15:58:24.837Z,14.30
2019-03-21T16:03:31.140Z,14.20
2019-03-21T16:08:36.461Z,14.00
2019-03-21T16:13:47.037Z,13.90
2019-03-21T16:18:54.324Z,13.80
2019-03-21T16:24:05.348Z,13.70
2019-03-21T16:29:11.816Z,13.60
2019-03-21T16:34:18.876Z,13.40
2019-03-21T16:39:24.526Z,13.30
2019-03-21T16:44:32.853Z,13.10
2019-03-21T16:49:40.917Z,13.00
2019-03-21T16:54:52.513Z,12.90
2019-03-21T16:59:57.909Z,12.70
2019-03-21T17:05:03.636Z,12.50
2019-03-21T17:10:15.500Z,12.40
2019-03-21T17:15:20.645Z,12.00
2019-03-21T17:20:25.886Z,11.50
2019-03-21T17:25:42.639Z,11.10
2019-03-21T17:30:51.817Z,10.90
2019-03-21T17:35:57.100Z,10.70
2019-03-21T17:41:03.690Z,10.40
2019-03-21T17:46:11.842Z,10.10
2019-03-21T17:51:24.693Z,9.90
2019-03-21T17:56:35.040Z,9.90
2019-03-21T18:01:40.177Z,10.00
2019-03-21T18:06:46.542Z,9.80
2019-03-21T18:11:53.332Z,9.40
2019-03-21T18:17:00.172Z,9.00
2019-03-21T18:22:06.118Z,8.60
2019-03-21T18:27:14.006Z,8.10
2019-03-21T18:32:19.864Z,7.70
2019-03-21T18:37:29.164Z,7.40
2019-03-21T18:42:37.378Z,7.20
2019-03-21T18:47:44.897Z,7.00
2019-03-21T18:52:51.266Z,6.90
2019-03-21T18:57:58.659Z,6.90
2019-03-21T19:03:06.212Z,6.90
2019-03-21T19:08:13.197Z,6.80
2019-03-21T19:13:18.990Z,6.60
2019-03-21T19:18:25.377Z,6.30
2019-03-21T19:23:31.247Z,6.00
2019-03-21T19:28:37.336Z,5.80
2019-03-21T19:33:42.616Z,5.70
2019-03-21T19:38:48.982Z,5.60
2019-03-21T19:43:54.897Z,5.50
2019-03-21T19:49:00.996Z,5.50
2019-03-21T19:54:06.182Z,5.50
2019-03-21T19:59:16.022Z,5.50
2019-03-21T20:04:26.318Z,5.40
2019-03-21T20:09:32.223Z,5.30
2019-03-21T20:14:39.782Z,5.20
2019-03-21T20:19:45.911Z,4.90
2019-03-21T20:24:50.912Z,4.90
2019-03-21T20:29:58.570Z,5.00
2019-03-21T20:35:06.061Z,5.10
2019-03-21T20:40:12.783Z,5.10
2019-03-21T20:45:18.617Z,5.00
2019-03-21T20:50:26.838Z,4.70
2019-03-21T20:55:32.546Z,4.60
2019-03-21T21:00:37.854Z,4.40
2019-03-21T21:05:43.169Z,4.10
2019-03-21T21:10:50.184Z,3.90
2019-03-21T21:15:58.639Z,3.70
2019-03-21T21:21:04.265Z,3.40
2019-03-21T21:26:11.326Z,3.20
2019-03-21T21:31:17.048Z,3.00
2019-03-21T21:36:22.491Z,2.80
2019-03-21T21:41:27.684Z,2.90
2019-03-21T21:46:33.648Z,2.70
2019-03-21T21:51:38.805Z,2.70
2019-03-21T21:56:45.596Z,2.60
2019-03-21T22:01:51.031Z,2.50
2019-03-21T22:06:56.286Z,2.60
2019-03-21T22:12:01.468Z,2.70
2019-03-21T22:17:07.535Z,2.80
2019-03-21T22:22:13.070Z,2.80
2019-03-21T22:27:18.976Z,2.60
2019-03-21T22:32:24.405Z,2.10
2019-03-21T22:37:29.349Z,1.70
2019-03-21T22:42:34.408Z,1.50
2019-03-21T22:47:39.681Z,1.40
2019-03-21T22:52:45.282Z,1.20
2019-03-21T22:57:51.449Z,1.10
2019-03-21T23:02:59.727Z,1.00
2019-03-21T23:08:05.064Z,0.90
2019-03-21T23:13:13.183Z,0.90
2019-03-21T23:18:18.429Z,0.80
2019-03-21T23:23:23.551Z,0.80
2019-03-21T23:28:28.770Z,0.60
2019-03-21T23:33:34.340Z,0.40
2019-03-21T23:38:43.114Z,0.50
2019-03-21T23:43:49.529Z,0.50
2019-03-21T23:48:55.447Z,0.40
2019-03-21T23:54:01.232Z,0.20
2019-03-21T23:59:06.101Z,0.10
